Time;durP1;ratioP1;P1;durP2;ratioP2;P2;SDS_P1;SDS_P2;PMS_P1;PMS_P2;Temp;Humidity;BMP_temperature;BMP_pressure;BME280_temperature;BME280_humidity;BME280_pressure;Samples;Min_cycle;Max_cycle;Signal;HPM_P1;HPM_P2
2021/08/13 00:01:35;;;;;;;2.47;0.93;;;14.80;99.90;;;;;;5053211;28;20388;-69
2021/08/13 00:04:01;;;;;;;3.38;0.90;;;14.80;99.90;;;;;;5053034;28;20159;-69
2021/08/13 00:06:26;;;;;;;0.95;0.95;;;14.70;99.90;;;;;;5052862;28;20099;-69
2021/08/13 00:08:52;;;;;;;1.00;0.90;;;14.70;99.90;;;;;;5052709;28;20165;-69
2021/08/13 00:11:18;;;;;;;2.55;1.10;;;14.70;99.90;;;;;;5052789;28;20025;-69
2021/08/13 00:13:44;;;;;;;1.17;0.90;;;14.60;99.90;;;;;;5052603;28;20378;-70
2021/08/13 00:16:10;;;;;;;1.10;0.90;;;14.60;99.90;;;;;;5052926;28;20087;-69
2021/08/13 00:18:36;;;;;;;0.93;0.93;;;14.60;99.90;;;;;;5052658;28;20469;-69
2021/08/13 00:21:01;;;;;;;1.15;0.88;;;14.60;99.90;;;;;;5052413;28;20036;-69
2021/08/13 00:23:27;;;;;;;1.90;0.93;;;14.60;99.90;;;;;;5052701;28;20488;-69
2021/08/13 00:25:53;;;;;;;1.58;0.80;;;14.60;99.90;;;;;;5052318;28;20443;-69
2021/08/13 00:28:19;;;;;;;0.85;0.85;;;14.50;99.90;;;;;;5052523;28;20029;-69
2021/08/13 00:30:44;;;;;;;0.73;0.73;;;14.60;99.90;;;;;;5051072;28;20078;-69
2021/08/13 00:33:10;;;;;;;1.30;0.90;;;14.60;99.90;;;;;;5052108;28;20063;-69
2021/08/13 00:35:36;;;;;;;1.10;0.88;;;14.60;99.90;;;;;;5052278;28;20027;-69
2021/08/13 00:38:02;;;;;;;3.72;1.20;;;14.60;99.90;;;;;;5052478;28;20032;-69
2021/08/13 00:40:28;;;;;;;1.10;0.90;;;14.50;99.90;;;;;;5052244;28;20431;-69
2021/08/13 00:42:53;;;;;;;2.30;1.00;;;14.50;99.90;;;;;;5052043;28;20036;-69
2021/08/13 00:45:19;;;;;;;2.25;1.00;;;14.50;99.90;;;;;;5052262;28;20021;-69
2021/08/13 00:47:46;;;;;;;1.95;1.00;;;14.40;99.90;;;;;;5052308;28;20104;-69
2021/08/13 00:50:12;;;;;;;2.72;0.90;;;14.40;99.90;;;;;;5052032;28;20431;-69
2021/08/13 00:52:38;;;;;;;1.33;1.00;;;14.40;99.90;;;;;;5051814;28;20041;-69
2021/08/13 00:55:05;;;;;;;0.88;0.82;;;14.40;99.90;;;;;;5052288;28;20515;-69
2021/08/13 00:57:31;;;;;;;2.30;1.10;;;14.30;99.90;;;;;;5051971;28;20028;-69
2021/08/13 00:59:58;;;;;;;1.15;1.00;;;14.30;99.90;;;;;;5051827;28;20025;-69
2021/08/13 01:02:24;;;;;;;1.00;0.93;;;14.30;99.90;;;;;;5052137;28;20515;-69
2021/08/13 01:04:50;;;;;;;1.13;1.02;;;14.30;99.90;;;;;;5051778;28;20392;-69
2021/08/13 01:07:16;;;;;;;1.50;0.80;;;14.30;99.90;;;;;;5052097;28;20025;-69
2021/08/13 01:09:42;;;;;;;1.52;0.98;;;14.30;99.90;;;;;;5051953;28;20059;-69
2021/08/13 01:12:49;;;;;;;1.25;1.08;;;14.30;99.90;;;;;;5051605;28;20400;-72
2021/08/13 01:15:16;;;;;;;2.70;1.15;;;14.30;99.90;;;;;;5051865;28;20099;-72
2021/08/13 01:44:21;;;;;;;1.20;1.05;;;14.00;99.90;;;;;;5051580;28;20029;-72
2021/08/13 01:46:48;;;;;;;1.58;0.95;;;14.00;99.90;;;;;;5051504;28;20025;-72
2021/08/13 01:49:16;;;;;;;0.88;0.88;;;14.00;99.90;;;;;;5051690;28;20021;-72
2021/08/13 01:51:42;;;;;;;1.75;0.95;;;13.90;99.90;;;;;;5051404;28;20179;-71
2021/08/13 01:54:09;;;;;;;0.98;0.98;;;13.80;99.90;;;;;;5051448;28;20504;-71
2021/08/13 01:56:35;;;;;;;1.25;1.00;;;13.70;99.90;;;;;;5051625;28;20032;-71
2021/08/13 01:59:02;;;;;;;2.97;1.05;;;13.70;99.90;;;;;;5051690;28;20037;-72
2021/08/13 02:01:30;;;;;;;1.45;1.10;;;13.60;99.90;;;;;;5051513;28;20071;-72
2021/08/13 02:03:56;;;;;;;4.10;0.90;;;13.60;99.90;;;;;;5051623;28;20029;-72
2021/08/13 02:06:24;;;;;;;1.25;1.15;;;13.60;99.90;;;;;;5051225;28;20508;-72
2021/08/13 02:08:51;;;;;;;2.20;1.05;;;13.50;99.90;;;;;;5051591;28;20059;-72
2021/08/13 02:11:17;;;;;;;1.10;1.00;;;13.50;99.90;;;;;;5051099;28;20049;-72
2021/08/13 02:13:43;;;;;;;1.65;1.10;;;13.50;99.90;;;;;;5051151;28;20032;-72
2021/08/13 02:16:12;;;;;;;3.00;1.25;;;13.50;99.90;;;;;;5051462;28;20071;-72
2021/08/13 02:18:45;;;;;;;1.20;1.10;;;13.40;99.90;;;;;;5051207;28;20412;-72
2021/08/13 02:21:14;;;;;;;1.20;1.05;;;13.40;99.90;;;;;;5050972;28;20032;-71
2021/08/13 02:23:40;;;;;;;1.20;1.00;;;13.40;99.90;;;;;;5051551;28;20029;-71
2021/08/13 02:26:06;;;;;;;1.10;1.00;;;13.40;99.90;;;;;;5051085;28;20480;-71
2021/08/13 02:28:32;;;;;;;2.70;1.38;;;13.40;99.90;;;;;;5052646;28;20087;-71
2021/08/13 02:30:57;;;;;;;1.30;0.95;;;13.40;99.90;;;;;;5054767;28;20021;-72
2021/08/13 02:33:23;;;;;;;1.90;1.20;;;13.40;99.90;;;;;;5054395;28;20169;-71
2021/08/13 02:35:51;;;;;;;1.40;1.27;;;13.50;99.90;;;;;;5054661;28;20028;-72
2021/08/13 02:38:23;;;;;;;2.25;1.20;;;13.50;99.90;;;;;;5054539;28;20025;-71
2021/08/13 02:40:49;;;;;;;1.25;1.15;;;13.40;99.90;;;;;;5054969;28;20480;-71
2021/08/13 02:43:24;;;;;;;2.15;1.25;;;13.40;99.90;;;;;;5054645;28;20100;-71
2021/08/13 02:45:53;;;;;;;1.00;0.98;;;13.40;99.90;;;;;;5054573;28;20388;-71
2021/08/13 02:48:20;;;;;;;2.03;1.20;;;13.40;99.90;;;;;;5054160;28;20492;-71
2021/08/13 02:50:48;;;;;;;1.98;1.15;;;13.30;99.90;;;;;;5054970;28;20268;-71
2021/08/13 02:53:21;;;;;;;4.28;1.35;;;13.30;99.90;;;;;;5053914;28;20170;-71
2021/08/13 02:55:54;;;;;;;4.40;1.23;;;13.30;99.90;;;;;;5054373;28;20057;-71
2021/08/13 02:58:23;;;;;;;1.02;1.00;;;13.30;99.90;;;;;;5053971;28;20116;-72
2021/08/13 03:00:52;;;;;;;3.00;1.30;;;13.30;99.90;;;;;;5054772;28;20028;-72
2021/08/13 03:03:19;;;;;;;1.42;1.33;;;13.30;99.90;;;;;;5053893;28;20025;-71
2021/08/13 03:05:49;;;;;;;1.20;1.10;;;13.30;99.90;;;;;;5054103;28;20163;-71
2021/08/13 03:08:22;;;;;;;1.30;1.20;;;13.30;99.90;;;;;;5053800;28;20510;-71
2021/08/13 03:10:48;;;;;;;1.92;1.00;;;13.20;99.90;;;;;;5054017;28;20067;-71
2021/08/13 03:13:22;;;;;;;2.30;1.35;;;13.20;99.90;;;;;;5053872;28;20084;-72
2021/08/13 03:15:49;;;;;;;2.55;1.38;;;13.30;99.90;;;;;;5054198;28;20063;-71
2021/08/13 03:18:15;;;;;;;1.30;1.20;;;13.20;99.90;;;;;;5053630;28;20062;-71
2021/08/13 03:20:41;;;;;;;1.65;1.10;;;13.20;99.90;;;;;;5053908;28;20104;-71
2021/08/13 03:23:08;;;;;;;2.80;1.25;;;13.20;99.90;;;;;;5052546;28;20484;-71
2021/08/13 03:25:35;;;;;;;2.38;1.40;;;13.20;99.90;;;;;;5053573;28;20135;-71
2021/08/13 03:28:00;;;;;;;3.22;1.50;;;13.20;99.90;;;;;;5053596;28;20017;-71
2021/08/13 03:30:26;;;;;;;1.48;1.20;;;13.20;99.90;;;;;;5053715;28;20550;-71
2021/08/13 03:32:54;;;;;;;6.20;1.52;;;13.30;99.90;;;;;;5053505;28;20098;-71
2021/08/13 03:35:20;;;;;;;1.42;1.10;;;13.30;99.90;;;;;;5053697;28;20112;-71
2021/08/13 03:37:45;;;;;;;2.20;1.23;;;13.30;99.90;;;;;;5053488;28;20537;-71
2021/08/13 03:40:12;;;;;;;1.55;1.20;;;13.30;99.90;;;;;;5053556;28;20127;-71
2021/08/13 03:42:37;;;;;;;1.38;1.27;;;13.30;99.90;;;;;;5053338;28;20044;-71
2021/08/13 03:45:03;;;;;;;1.45;1.20;;;13.30;99.90;;;;;;5054024;28;20465;-72
2021/08/13 03:47:29;;;;;;;1.40;1.30;;;13.30;99.90;;;;;;5053061;28;20079;-72
2021/08/13 03:49:55;;;;;;;1.17;1.10;;;13.40;99.90;;;;;;5053222;28;20027;-72
2021/08/13 03:52:20;;;;;;;3.63;1.42;;;13.50;99.90;;;;;;5052899;28;20132;-71
2021/08/13 03:54:48;;;;;;;2.60;1.20;;;13.70;99.90;;;;;;5053525;28;20443;-72
2021/08/13 03:57:13;;;;;;;1.63;1.30;;;14.00;99.90;;;;;;5053470;28;20029;-71
2021/08/13 03:59:39;;;;;;;1.52;1.33;;;14.20;99.90;;;;;;5053053;28;20024;-71
2021/08/13 04:02:05;;;;;;;1.52;1.20;;;14.20;99.90;;;;;;5053298;28;20113;-72
2021/08/13 04:04:31;;;;;;;2.38;1.52;;;14.20;99.90;;;;;;5052852;28;20530;-71
2021/08/13 04:06:56;;;;;;;1.38;1.27;;;14.20;99.90;;;;;;5052838;28;20029;-71
2021/08/13 04:09:22;;;;;;;1.15;1.02;;;14.20;99.90;;;;;;5052703;28;20028;-71
2021/08/13 04:11:48;;;;;;;1.05;1.00;;;14.20;99.90;;;;;;5052960;28;20116;-71
2021/08/13 04:14:14;;;;;;;1.38;1.10;;;14.20;99.90;;;;;;5052700;28;20401;-71
2021/08/13 04:16:39;;;;;;;2.13;1.20;;;14.20;99.90;;;;;;5052762;28;20032;-71
2021/08/13 04:19:05;;;;;;;1.40;1.15;;;14.30;99.90;;;;;;5052936;28;20040;-71
2021/08/13 04:21:31;;;;;;;3.15;1.10;;;14.50;99.90;;;;;;5052671;28;20024;-71
2021/08/13 04:23:56;;;;;;;3.10;1.17;;;14.90;99.90;;;;;;5052566;28;20123;-71
2021/08/13 04:26:22;;;;;;;1.80;1.05;;;15.40;99.90;;;;;;5052351;28;20021;-71
2021/08/13 04:28:48;;;;;;;1.60;1.13;;;15.90;99.90;;;;;;5052401;28;20033;-71
2021/08/13 04:31:13;;;;;;;1.00;0.90;;;16.30;99.90;;;;;;5052715;28;20021;-71
2021/08/13 04:33:39;;;;;;;1.55;0.82;;;16.60;99.90;;;;;;5052093;28;20033;-71
2021/08/13 04:36:05;;;;;;;1.27;0.95;;;16.90;99.90;;;;;;5052640;28;20028;-71
2021/08/13 04:38:31;;;;;;;1.40;0.90;;;17.20;99.90;;;;;;5052363;28;20025;-71
2021/08/13 04:40:56;;;;;;;1.17;0.80;;;17.40;99.90;;;;;;5052612;28;20100;-71
2021/08/13 04:43:22;;;;;;;1.13;0.95;;;17.70;99.90;;;;;;5052053;28;20083;-71
2021/08/13 04:45:48;;;;;;;2.45;1.00;;;18.00;99.90;;;;;;5052173;28;20051;-71
2021/08/13 04:48:13;;;;;;;0.80;0.80;;;18.20;99.90;;;;;;5052118;28;20056;-72
2021/08/13 04:50:39;;;;;;;1.13;0.75;;;18.40;99.90;;;;;;5051585;28;20115;-71
2021/08/13 04:53:05;;;;;;;1.13;0.93;;;18.70;99.90;;;;;;5051815;28;20102;-71
2021/08/13 04:55:31;;;;;;;1.77;1.08;;;18.90;99.90;;;;;;5052253;28;20044;-71
2021/08/13 04:57:56;;;;;;;2.90;0.85;;;19.10;99.90;;;;;;5052245;28;20025;-71
2021/08/13 05:00:23;;;;;;;0.80;0.70;;;19.30;99.90;;;;;;5051907;28;20028;-69
2021/08/13 05:02:49;;;;;;;0.80;0.70;;;19.40;99.90;;;;;;5051922;28;20100;-69
2021/08/13 05:05:14;;;;;;;1.45;0.90;;;19.60;99.90;;;;;;5051987;28;20099;-69
2021/08/13 05:07:40;;;;;;;0.90;0.80;;;19.90;99.90;;;;;;5052028;28;20028;-71
2021/08/13 05:10:15;;;;;;;2.45;0.70;;;20.20;99.90;;;;;;5051912;28;20025;-71
2021/08/13 05:12:41;;;;;;;2.10;0.77;;;20.50;99.90;;;;;;5051712;28;20065;-71
2021/08/13 05:15:08;;;;;;;1.83;0.73;;;20.70;99.60;;;;;;5052065;28;20140;-71
2021/08/13 05:17:34;;;;;;;4.57;0.80;;;20.80;99.00;;;;;;5051621;28;20590;-71
2021/08/13 05:20:00;;;;;;;1.33;0.90;;;21.00;98.70;;;;;;5051732;28;20124;-71
2021/08/13 05:22:26;;;;;;;0.60;0.50;;;21.20;98.10;;;;;;5051895;28;20024;-71
2021/08/13 05:24:52;;;;;;;3.55;0.77;;;21.40;97.40;;;;;;5051758;28;20151;-71
2021/08/13 05:27:18;;;;;;;2.70;1.23;;;21.70;96.60;;;;;;5051882;28;20021;-72
2021/08/13 05:29:44;;;;;;;1.17;0.63;;;22.00;95.80;;;;;;5051616;28;20029;-72
2021/08/13 05:32:10;;;;;;;0.75;0.70;;;22.20;94.60;;;;;;5051436;28;20353;-72
2021/08/13 05:34:36;;;;;;;8.32;1.02;;;22.30;93.90;;;;;;5051729;28;20044;-72
2021/08/13 05:37:01;;;;;;;0.77;0.52;;;22.40;93.30;;;;;;5051772;28;20100;-72
2021/08/13 05:39:27;;;;;;;4.15;0.90;;;22.60;92.80;;;;;;5051624;28;20021;-72
2021/08/13 05:41:53;;;;;;;1.13;0.80;;;22.70;92.40;;;;;;5051733;28;20025;-72
2021/08/13 05:44:19;;;;;;;8.98;0.80;;;22.80;92.20;;;;;;5051460;28;20022;-72
2021/08/13 05:46:44;;;;;;;4.40;0.70;;;22.80;91.50;;;;;;5050013;28;20400;-70
2021/08/13 05:49:10;;;;;;;3.83;0.70;;;22.90;91.40;;;;;;5051761;28;20029;-69
2021/08/13 05:51:36;;;;;;;0.65;0.63;;;23.00;91.00;;;;;;5051171;28;20041;-69
2021/08/13 05:54:02;;;;;;;1.10;0.70;;;23.10;91.00;;;;;;5051481;28;20047;-69
2021/08/13 05:56:27;;;;;;;1.02;0.50;;;23.30;90.40;;;;;;5051326;28;20385;-70
2021/08/13 05:58:59;;;;;;;4.43;0.98;;;23.50;89.80;;;;;;5051362;28;20025;-69
2021/08/13 06:01:25;;;;;;;1.90;0.82;;;23.50;88.60;;;;;;5051311;28;20032;-70
2021/08/13 06:03:51;;;;;;;3.05;0.70;;;23.60;88.00;;;;;;5055257;28;20025;-69
2021/08/13 06:06:16;;;;;;;1.17;0.80;;;23.60;87.50;;;;;;5055244;28;20025;-70
2021/08/13 06:08:42;;;;;;;1.00;0.57;;;23.70;87.30;;;;;;5055146;28;20175;-69
2021/08/13 06:11:08;;;;;;;0.80;0.70;;;23.70;86.60;;;;;;5055115;28;20021;-69
2021/08/13 06:13:33;;;;;;;3.20;0.70;;;23.70;86.00;;;;;;5054923;28;20044;-69
2021/08/13 06:15:59;;;;;;;0.70;0.63;;;23.70;86.50;;;;;;5055348;28;20392;-69
2021/08/13 06:18:25;;;;;;;0.85;0.52;;;23.70;86.30;;;;;;5054647;28;20464;-69
2021/08/13 06:20:51;;;;;;;2.15;0.70;;;23.90;86.60;;;;;;5054941;28;20052;-70
2021/08/13 06:23:16;;;;;;;1.42;0.60;;;24.00;84.90;;;;;;5055119;28;20106;-69
2021/08/13 06:25:42;;;;;;;6.50;0.70;;;24.10;84.30;;;;;;5054732;28;20032;-72
2021/08/13 06:28:08;;;;;;;5.53;1.35;;;24.20;84.00;;;;;;5054717;28;20025;-70
2021/08/13 06:30:34;;;;;;;1.45;0.93;;;24.20;83.00;;;;;;5054593;28;20051;-70
2021/08/13 06:33:00;;;;;;;1.50;0.82;;;24.20;82.90;;;;;;5054609;28;20037;-70
2021/08/13 06:35:27;;;;;;;2.38;0.70;;;24.30;82.40;;;;;;5054794;28;20075;-70
2021/08/13 06:37:54;;;;;;;2.22;0.70;;;24.30;81.90;;;;;;5054868;28;20210;-70
2021/08/13 06:40:21;;;;;;;1.90;0.50;;;24.40;81.40;;;;;;5054509;28;20029;-70
2021/08/13 06:42:47;;;;;;;1.33;0.50;;;24.50;81.60;;;;;;5054596;28;20029;-70
2021/08/13 06:45:16;;;;;;;1.38;0.60;;;24.60;81.00;;;;;;5054508;28;20035;-70
2021/08/13 06:47:43;;;;;;;1.08;0.57;;;24.60;80.30;;;;;;5054156;28;20033;-70
2021/08/13 06:50:10;;;;;;;0.98;0.50;;;24.70;79.60;;;;;;5054464;28;20025;-70
2021/08/13 06:52:36;;;;;;;2.13;0.60;;;24.70;79.50;;;;;;5053856;28;20052;-70
2021/08/13 06:55:03;;;;;;;7.57;0.82;;;24.80;78.70;;;;;;5054440;28;20553;-70
2021/08/13 06:57:28;;;;;;;1.60;0.55;;;24.80;79.70;;;;;;5054004;28;20048;-70
2021/08/13 06:59:54;;;;;;;2.10;0.77;;;24.80;77.60;;;;;;5054228;28;20056;-70
2021/08/13 07:02:20;;;;;;;2.15;0.47;;;24.80;77.50;;;;;;5054122;28;20036;-71
2021/08/13 07:04:46;;;;;;;0.52;0.50;;;24.70;77.30;;;;;;5053904;28;20029;-71
2021/08/13 07:07:13;;;;;;;6.22;0.65;;;24.80;78.70;;;;;;5054081;28;20074;-71
2021/08/13 07:09:40;;;;;;;1.67;0.60;;;24.90;79.20;;;;;;5052938;28;20153;-71
2021/08/13 07:12:06;;;;;;;1.13;0.50;;;24.90;76.60;;;;;;5054168;28;20525;-71
2021/08/13 07:14:31;;;;;;;3.13;0.52;;;24.90;76.20;;;;;;5052821;28;20126;-71
2021/08/13 07:16:57;;;;;;;4.43;0.90;;;24.90;75.60;;;;;;5053770;28;20064;-71
2021/08/13 07:19:23;;;;;;;0.68;0.60;;;25.00;76.50;;;;;;5053866;28;20028;-71
2021/08/13 07:21:48;;;;;;;6.28;0.63;;;24.90;76.60;;;;;;5053646;28;20119;-71
2021/08/13 07:24:15;;;;;;;2.03;0.57;;;24.80;76.10;;;;;;5053922;28;20040;-71
2021/08/13 07:26:41;;;;;;;2.78;0.57;;;24.80;77.30;;;;;;5053498;28;20056;-71
2021/08/13 07:29:06;;;;;;;1.63;1.00;;;24.80;76.90;;;;;;5053377;28;20056;-71
2021/08/13 07:31:32;;;;;;;3.72;0.60;;;24.80;75.60;;;;;;5053747;28;20075;-71
2021/08/13 07:33:58;;;;;;;13.50;0.73;;;24.70;75.90;;;;;;5053683;28;20456;-71
2021/08/13 07:36:25;;;;;;;6.20;1.50;;;24.80;77.30;;;;;;5053577;28;20503;-71
2021/08/13 07:38:52;;;;;;;1.23;0.40;;;24.80;75.80;;;;;;5053725;28;20031;-71
2021/08/13 07:41:18;;;;;;;0.45;0.45;;;24.80;76.10;;;;;;5053355;28;20027;-71
2021/08/13 07:43:44;;;;;;;0.68;0.43;;;24.80;75.40;;;;;;5053066;28;20060;-71
2021/08/13 07:46:10;;;;;;;0.68;0.43;;;24.70;74.90;;;;;;5053340;28;20059;-71
2021/08/13 07:48:36;;;;;;;0.90;0.60;;;24.50;74.60;;;;;;5052868;28;20392;-71
2021/08/13 07:51:03;;;;;;;1.05;0.50;;;24.50;75.10;;;;;;5053028;28;20104;-71
2021/08/13 07:53:28;;;;;;;0.30;0.30;;;24.50;75.40;;;;;;5052712;28;20040;-71
2021/08/13 07:55:54;;;;;;;0.73;0.50;;;24.50;76.20;;;;;;5053405;28;20021;-71
2021/08/13 07:58:20;;;;;;;0.47;0.40;;;24.50;75.40;;;;;;5053035;28;20060;-72
2021/08/13 08:00:46;;;;;;;0.93;0.73;;;24.50;75.20;;;;;;5052853;28;20097;-72
2021/08/13 08:03:13;;;;;;;1.95;0.50;;;24.50;75.80;;;;;;5053158;28;20467;-72
2021/08/13 08:05:39;;;;;;;4.88;0.47;;;24.60;75.70;;;;;;5053072;28;20029;-72
2021/08/13 08:08:05;;;;;;;1.52;0.45;;;24.60;75.40;;;;;;5052726;28;20074;-72
2021/08/13 08:10:31;;;;;;;15.15;1.40;;;24.50;74.30;;;;;;5052733;28;20384;-72
2021/08/13 08:12:57;;;;;;;15.32;1.23;;;24.50;74.80;;;;;;5052454;28;20033;-72
2021/08/13 08:15:23;;;;;;;8.52;0.80;;;24.40;74.40;;;;;;5052735;28;20041;-72
2021/08/13 08:17:48;;;;;;;7.43;0.90;;;24.30;76.20;;;;;;5052753;28;20024;-72
2021/08/13 08:20:15;;;;;;;3.00;0.73;;;24.40;75.80;;;;;;5053015;28;20428;-72
2021/08/13 08:22:40;;;;;;;4.82;0.80;;;24.40;74.30;;;;;;5052462;28;20040;-72
2021/08/13 08:25:07;;;;;;;0.70;0.43;;;24.40;75.50;;;;;;5052897;28;20021;-72
2021/08/13 08:27:33;;;;;;;2.15;0.45;;;24.40;75.40;;;;;;5052225;28;20610;-72
2021/08/13 08:29:59;;;;;;;3.75;0.65;;;24.20;75.00;;;;;;5052430;28;20112;-72
2021/08/13 08:32:24;;;;;;;0.45;0.40;;;24.20;75.60;;;;;;5052522;28;20021;-72
2021/08/13 08:34:50;;;;;;;3.25;0.60;;;24.20;75.50;;;;;;5052543;28;20108;-72
2021/08/13 08:37:18;;;;;;;0.60;0.38;;;24.20;75.00;;;;;;5052183;28;20027;-72
2021/08/13 08:39:45;;;;;;;11.48;0.90;;;24.20;76.90;;;;;;5052215;28;20025;-72
2021/08/13 08:42:17;;;;;;;13.27;1.92;;;24.20;75.70;;;;;;5052366;28;20025;-72
2021/08/13 08:44:43;;;;;;;4.53;0.60;;;24.10;74.70;;;;;;5052278;28;20028;-71
2021/08/13 08:47:09;;;;;;;3.13;0.60;;;24.10;77.00;;;;;;5052284;28;20017;-71
2021/08/13 08:49:40;;;;;;;37.25;2.63;;;24.20;77.20;;;;;;5051813;28;20068;-71
2021/08/13 08:52:10;;;;;;;17.80;1.20;;;24.30;76.00;;;;;;5051956;28;20083;-71
2021/08/13 08:54:38;;;;;;;1.08;0.60;;;24.30;75.90;;;;;;5051968;28;20215;-72
2021/08/13 08:57:05;;;;;;;0.68;0.40;;;24.30;75.70;;;;;;5052052;28;20025;-72
2021/08/13 08:59:32;;;;;;;36.55;2.30;;;24.20;76.20;;;;;;5051758;28;20059;-72
2021/08/13 09:01:59;;;;;;;2.58;0.63;;;24.20;77.60;;;;;;5052343;28;20112;-71
2021/08/13 09:04:25;;;;;;;1.02;0.40;;;24.20;76.00;;;;;;5051918;28;20575;-72
2021/08/13 09:06:51;;;;;;;6.63;0.80;;;24.20;75.60;;;;;;5051774;28;20071;-72
2021/08/13 09:09:17;;;;;;;26.52;2.60;;;24.20;76.90;;;;;;5051802;28;20028;-72
2021/08/13 09:11:44;;;;;;;0.43;0.40;;;24.40;76.40;;;;;;5051811;28;20029;-71
2021/08/13 09:14:14;;;;;;;4.55;0.43;;;24.40;75.10;;;;;;5051571;28;20435;-72
2021/08/13 09:17:00;;;;;;;0.93;0.60;;;24.30;73.30;;;;;;5051749;28;20419;-71
2021/08/13 09:19:48;;;;;;;1.15;0.40;;;24.30;74.50;;;;;;5051728;28;20064;-72
2021/08/13 09:22:19;;;;;;;9.75;0.60;;;24.30;73.70;;;;;;5052099;28;20029;-72
2021/08/13 09:24:48;;;;;;;4.53;0.40;;;24.20;73.70;;;;;;5051898;28;20051;-72
2021/08/13 09:27:16;;;;;;;0.75;0.43;;;24.30;73.30;;;;;;5050475;28;20025;-72
2021/08/13 09:30:05;;;;;;;11.35;0.70;;;24.30;74.70;;;;;;5051441;28;20025;-72
2021/08/13 09:32:31;;;;;;;1.13;0.70;;;24.30;73.10;;;;;;5051565;28;20497;-72
2021/08/13 09:34:56;;;;;;;0.40;0.30;;;24.40;75.60;;;;;;5051955;28;20037;-72
2021/08/13 09:37:22;;;;;;;0.60;0.40;;;24.40;74.60;;;;;;5053312;28;20024;-72
2021/08/13 09:39:57;;;;;;;2.20;0.38;;;24.40;74.30;;;;;;5055611;28;20021;-72
2021/08/13 09:42:36;;;;;;;11.63;1.00;;;24.40;71.90;;;;;;5055709;28;20100;-72
2021/08/13 09:45:09;;;;;;;5.43;0.80;;;24.40;72.30;;;;;;5055633;28;20472;-72
2021/08/13 09:47:47;;;;;;;8.68;0.65;;;24.60;71.60;;;;;;5055406;28;20090;-72
2021/08/13 09:50:21;;;;;;;0.32;0.32;;;24.60;70.90;;;;;;5056130;28;20025;-72
2021/08/13 09:53:08;;;;;;;11.65;0.88;;;24.50;71.50;;;;;;5055008;28;20049;-72
2021/08/13 09:55:35;;;;;;;0.65;0.43;;;24.50;73.10;;;;;;5055578;28;20029;-72
2021/08/13 09:58:01;;;;;;;37.97;2.20;;;24.50;73.00;;;;;;5055574;28;20503;-72
2021/08/13 10:00:26;;;;;;;0.52;0.38;;;24.50;70.90;;;;;;5055348;28;20037;-72
2021/08/13 10:03:04;;;;;;;22.42;1.63;;;24.40;71.80;;;;;;5063157;28;20028;-71
2021/08/13 10:05:30;;;;;;;0.60;0.50;;;24.50;72.70;;;;;;5065277;28;20025;-72
2021/08/13 10:08:01;;;;;;;4.18;0.52;;;24.40;71.50;;;;;;5055388;28;20025;-72
2021/08/13 10:10:28;;;;;;;0.47;0.47;;;24.30;71.10;;;;;;5055247;28;20025;-72
2021/08/13 10:12:55;;;;;;;1.80;0.50;;;24.30;72.10;;;;;;5054946;28;20033;-71
2021/08/13 10:15:30;;;;;;;1.00;0.60;;;24.30;71.70;;;;;;5055200;28;20033;-71
2021/08/13 10:17:57;;;;;;;0.82;0.40;;;24.30;71.50;;;;;;5053753;28;20021;-71
2021/08/13 10:20:29;;;;;;;0.40;0.40;;;24.30;72.00;;;;;;5055386;28;20098;-71
2021/08/13 10:22:55;;;;;;;90.22;5.68;;;24.30;72.80;;;;;;5054743;28;20075;-71
2021/08/13 10:25:22;;;;;;;3.03;0.65;;;24.40;71.20;;;;;;5065094;28;20021;-71
2021/08/13 10:27:48;;;;;;;18.70;1.23;;;24.40;72.70;;;;;;5066597;28;20040;-71
2021/08/13 10:30:17;;;;;;;3.28;0.77;;;24.40;71.30;;;;;;5072974;28;20103;-71
2021/08/13 10:32:45;;;;;;;3.40;0.63;;;24.50;71.70;;;;;;5074474;28;20395;-71
2021/08/13 10:35:12;;;;;;;2.38;0.52;;;24.70;71.40;;;;;;5074922;28;20041;-71
2021/08/13 10:37:38;;;;;;;7.47;0.85;;;24.70;71.90;;;;;;5074365;28;20415;-71
2021/08/13 10:40:05;;;;;;;1.92;0.55;;;24.70;69.70;;;;;;5074609;28;20043;-70
2021/08/13 10:42:34;;;;;;;2.53;0.60;;;24.70;72.30;;;;;;5074688;28;20114;-71
2021/08/13 10:45:07;;;;;;;19.73;1.08;;;24.70;70.10;;;;;;5072827;28;20024;-71
2021/08/13 10:48:00;;;;;;;9.43;1.20;;;24.60;70.70;;;;;;5054629;28;20449;-70
2021/08/13 10:50:27;;;;;;;7.45;0.80;;;24.70;70.40;;;;;;5053166;28;20033;-70
2021/08/13 10:52:53;;;;;;;6.10;0.70;;;24.70;70.50;;;;;;5055867;28;20048;-70
2021/08/13 10:55:42;;;;;;;11.63;1.00;;;24.70;70.10;;;;;;5065730;28;20095;-70
2021/08/13 10:58:09;;;;;;;3.13;0.90;;;24.60;68.50;;;;;;5064101;28;20024;-70
2021/08/13 11:01:05;;;;;;;3.97;0.88;;;24.50;68.10;;;;;;5058523;28;20515;-72
2021/08/13 11:03:31;;;;;;;3.85;0.75;;;24.50;69.00;;;;;;5056495;28;20032;-70
2021/08/13 11:05:58;;;;;;;8.30;1.15;;;24.40;69.80;;;;;;5073419;28;20033;-70
2021/08/13 11:08:47;;;;;;;0.52;0.50;;;24.40;69.70;;;;;;5073894;28;20487;-70
2021/08/13 11:11:14;;;;;;;7.15;0.70;;;24.40;68.80;;;;;;5073952;28;20027;-70
2021/08/13 11:13:45;;;;;;;1.42;0.52;;;24.50;68.70;;;;;;5073838;28;20032;-70
2021/08/13 11:16:26;;;;;;;0.65;0.60;;;24.50;68.50;;;;;;5074207;28;20031;-70
2021/08/13 11:18:56;;;;;;;0.93;0.68;;;24.60;67.50;;;;;;5073832;28;20082;-70
2021/08/13 11:21:44;;;;;;;1.02;0.50;;;24.70;68.30;;;;;;5074120;28;20017;-70
2021/08/13 11:24:12;;;;;;;0.60;0.50;;;24.70;66.80;;;;;;5073624;28;20027;-70
2021/08/13 11:26:53;;;;;;;2.38;0.50;;;24.70;66.90;;;;;;5073460;28;20021;-70
2021/08/13 11:29:35;;;;;;;1.02;0.50;;;24.70;66.60;;;;;;5073772;28;20032;-70
2021/08/13 11:32:04;;;;;;;6.75;0.60;;;24.70;66.70;;;;;;5073436;28;20025;-70
2021/08/13 11:35:04;;;;;;;12.23;0.73;;;24.80;66.20;;;;;;5073783;28;20028;-70
2021/08/13 11:37:41;;;;;;;2.33;0.63;;;24.90;65.60;;;;;;5073913;28;20040;-70
2021/08/13 11:40:13;;;;;;;2.15;0.50;;;24.90;65.50;;;;;;5073321;28;20020;-70
2021/08/13 11:42:52;;;;;;;0.98;0.80;;;25.00;64.80;;;;;;5073393;28;20024;-70
2021/08/13 11:45:20;;;;;;;3.83;0.60;;;25.00;64.40;;;;;;5072000;28;20025;-70
2021/08/13 11:47:51;;;;;;;0.95;0.57;;;25.00;64.60;;;;;;5073776;28;20035;-70
2021/08/13 11:50:18;;;;;;;5.00;0.88;;;25.00;62.80;;;;;;5073248;28;20108;-70
2021/08/13 11:52:48;;;;;;;3.10;0.65;;;25.10;63.40;;;;;;5072892;28;20075;-70
2021/08/13 11:55:26;;;;;;;2.03;0.50;;;25.10;63.70;;;;;;5073039;28;20033;-70
2021/08/13 11:57:57;;;;;;;2.65;0.70;;;25.20;63.60;;;;;;5072928;28;20024;-70
2021/08/13 12:00:25;;;;;;;12.20;1.65;;;25.20;63.50;;;;;;5072638;28;20492;-70
2021/08/13 12:03:02;;;;;;;6.78;0.88;;;25.20;62.50;;;;;;5072782;28;20025;-70
2021/08/13 12:05:30;;;;;;;0.73;0.50;;;25.30;61.30;;;;;;5073069;28;20044;-70
2021/08/13 12:08:01;;;;;;;2.15;0.77;;;25.20;60.70;;;;;;5072942;28;20028;-70
2021/08/13 12:10:28;;;;;;;2.80;0.90;;;25.20;59.40;;;;;;5073140;28;20029;-70
2021/08/13 12:12:54;;;;;;;0.80;0.70;;;25.20;59.70;;;;;;5072428;28;20122;-70
2021/08/13 12:15:35;;;;;;;2.45;0.80;;;25.20;59.70;;;;;;5072778;28;20056;-70
2021/08/13 12:18:02;;;;;;;1.33;0.50;;;25.20;59.30;;;;;;5072508;28;20020;-70
2021/08/13 12:20:29;;;;;;;0.73;0.60;;;25.10;60.00;;;;;;5072718;28;20029;-70
2021/08/13 12:22:59;;;;;;;1.08;0.75;;;25.10;60.00;;;;;;5072728;28;20255;-70
2021/08/13 12:25:33;;;;;;;0.70;0.70;;;25.10;59.00;;;;;;5072657;28;20047;-70
2021/08/13 12:28:00;;;;;;;1.02;0.85;;;25.10;59.30;;;;;;5072360;28;20020;-70
2021/08/13 12:30:26;;;;;;;0.73;0.60;;;25.10;59.60;;;;;;5072532;28;20025;-70
2021/08/13 12:32:52;;;;;;;1.10;0.70;;;25.00;59.40;;;;;;5072206;28;20031;-71
2021/08/13 12:35:21;;;;;;;2.13;0.88;;;25.00;59.20;;;;;;5072246;28;20487;-70
2021/08/13 12:37:47;;;;;;;0.82;0.80;;;25.00;59.70;;;;;;5072170;28;20074;-70
2021/08/13 12:40:14;;;;;;;14.68;1.23;;;25.10;58.10;;;;;;5072273;28;20499;-70
2021/08/13 12:42:43;;;;;;;1.50;1.08;;;25.10;57.70;;;;;;5072325;28;20070;-70
2021/08/13 12:45:10;;;;;;;4.22;0.95;;;25.10;57.60;;;;;;5072496;28;20028;-70
2021/08/13 12:47:38;;;;;;;2.67;0.70;;;25.10;57.70;;;;;;5072240;28;20025;-70
2021/08/13 12:50:05;;;;;;;0.93;0.65;;;25.20;57.80;;;;;;5071962;28;20117;-70
2021/08/13 12:52:31;;;;;;;2.53;0.80;;;25.20;56.90;;;;;;5071906;28;20045;-71
2021/08/13 12:54:56;;;;;;;8.70;1.52;;;25.10;56.30;;;;;;5072065;28;20551;-70
2021/08/13 12:57:23;;;;;;;2.10;0.90;;;25.10;55.70;;;;;;5071971;28;20507;-70
2021/08/13 13:00:01;;;;;;;1.52;0.90;;;25.10;57.10;;;;;;5071814;28;20044;-71
2021/08/13 13:02:28;;;;;;;3.47;0.90;;;25.10;58.40;;;;;;5072121;28;20112;-70
2021/08/13 13:05:00;;;;;;;1.38;0.90;;;25.10;58.30;;;;;;5072029;28;20024;-70
2021/08/13 13:07:39;;;;;;;4.43;0.80;;;25.10;58.40;;;;;;5072243;28;20036;-70
2021/08/13 13:10:16;;;;;;;19.40;2.03;;;25.10;58.00;;;;;;5071915;28;20123;-70
2021/08/13 13:12:42;;;;;;;1.23;0.98;;;25.00;57.10;;;;;;5071143;28;20048;-70
2021/08/13 13:15:26;;;;;;;1.08;0.85;;;25.00;57.10;;;;;;5071964;28;20100;-70
2021/08/13 13:17:56;;;;;;;3.03;1.10;;;25.00;56.50;;;;;;5072059;28;20436;-70